sensor_id;sensor_type;location;lat;lon;timestamp;temperature;humidity
68943;DHT22;60852;52.190;4.422;2022-10-31T00:01:24;14.05;79.36
68943;DHT22;60852;52.190;4.422;2022-10-31T00:03:49;14.09;79.24
68943;DHT22;60852;52.190;4.422;2022-10-31T00:06:16;14.05;79.25
68943;DHT22;60852;52.190;4.422;2022-10-31T00:08:51;13.97;79.31
68943;DHT22;60852;52.190;4.422;2022-10-31T00:11:16;13.95;79.32
68943;DHT22;60852;52.190;4.422;2022-10-31T00:13:41;13.87;79.49
68943;DHT22;60852;52.190;4.422;2022-10-31T00:16:23;13.87;79.62
68943;DHT22;60852;52.190;4.422;2022-10-31T00:18:53;13.82;79.95
68943;DHT22;60852;52.190;4.422;2022-10-31T00:21:20;13.86;80.01
68943;DHT22;60852;52.190;4.422;2022-10-31T00:23:45;13.82;80.20
68943;DHT22;60852;52.190;4.422;2022-10-31T00:26:11;13.82;80.09
68943;DHT22;60852;52.190;4.422;2022-10-31T00:28:37;13.83;80.17
68943;DHT22;60852;52.190;4.422;2022-10-31T00:31:05;13.80;80.13
68943;DHT22;60852;52.190;4.422;2022-10-31T00:33:34;13.79;80.01
68943;DHT22;60852;52.190;4.422;2022-10-31T00:35:59;13.72;80.07
68943;DHT22;60852;52.190;4.422;2022-10-31T00:38:25;13.73;80.12
68943;DHT22;60852;52.190;4.422;2022-10-31T00:40:51;13.68;80.39
68943;DHT22;60852;52.190;4.422;2022-10-31T00:43:16;13.63;80.82
68943;DHT22;60852;52.190;4.422;2022-10-31T00:45:42;13.65;80.73
68943;DHT22;60852;52.190;4.422;2022-10-31T00:48:08;13.63;80.72
68943;DHT22;60852;52.190;4.422;2022-10-31T00:50:35;13.62;80.46
68943;DHT22;60852;52.190;4.422;2022-10-31T00:53:01;13.58;80.50
68943;DHT22;60852;52.190;4.422;2022-10-31T00:55:26;13.54;80.74
68943;DHT22;60852;52.190;4.422;2022-10-31T00:57:52;13.54;80.98
68943;DHT22;60852;52.190;4.422;2022-10-31T01:00:17;13.55;81.09
68943;DHT22;60852;52.190;4.422;2022-10-31T01:02:43;13.58;81.12
68943;DHT22;60852;52.190;4.422;2022-10-31T01:05:08;13.59;80.93
68943;DHT22;60852;52.190;4.422;2022-10-31T01:07:38;13.61;80.83
68943;DHT22;60852;52.190;4.422;2022-10-31T01:10:05;13.61;80.56
68943;DHT22;60852;52.190;4.422;2022-10-31T01:12:43;13.59;80.38
68943;DHT22;60852;52.190;4.422;2022-10-31T01:15:11;13.56;80.32
68943;DHT22;60852;52.190;4.422;2022-10-31T01:17:36;13.54;80.28
68943;DHT22;60852;52.190;4.422;2022-10-31T01:20:04;13.51;80.16
68943;DHT22;60852;52.190;4.422;2022-10-31T01:22:29;13.48;80.21
68943;DHT22;60852;52.190;4.422;2022-10-31T01:24:55;13.41;80.21
68943;DHT22;60852;52.190;4.422;2022-10-31T01:27:20;13.38;80.46
68943;DHT22;60852;52.190;4.422;2022-10-31T01:29:46;13.41;80.69
68943;DHT22;60852;52.190;4.422;2022-10-31T01:32:11;13.38;80.70
68943;DHT22;60852;52.190;4.422;2022-10-31T01:34:36;13.38;80.89
68943;DHT22;60852;52.190;4.422;2022-10-31T01:37:02;13.39;81.18
68943;DHT22;60852;52.190;4.422;2022-10-31T01:39:27;13.37;81.12
68943;DHT22;60852;52.190;4.422;2022-10-31T01:41:54;13.37;81.21
68943;DHT22;60852;52.190;4.422;2022-10-31T01:49:26;13.37;81.26
68943;DHT22;60852;52.190;4.422;2022-10-31T01:52:00;13.35;81.14
68943;DHT22;60852;52.190;4.422;2022-10-31T01:54:32;13.38;80.97
68943;DHT22;60852;52.190;4.422;2022-10-31T01:57:02;13.39;80.66
68943;DHT22;60852;52.190;4.422;2022-10-31T01:59:31;13.38;80.58
68943;DHT22;60852;52.190;4.422;2022-10-31T02:01:59;13.35;80.60
68943;DHT22;60852;52.190;4.422;2022-10-31T02:04:25;13.35;80.48
68943;DHT22;60852;52.190;4.422;2022-10-31T02:07:01;13.31;80.34
68943;DHT22;60852;52.190;4.422;2022-10-31T02:09:30;13.31;80.46
68943;DHT22;60852;52.190;4.422;2022-10-31T02:11:59;13.32;80.37
68943;DHT22;60852;52.190;4.422;2022-10-31T02:14:27;13.29;79.96
68943;DHT22;60852;52.190;4.422;2022-10-31T02:16:54;13.22;80.04
68943;DHT22;60852;52.190;4.422;2022-10-31T02:19:50;13.14;80.35
68943;DHT22;60852;52.190;4.422;2022-10-31T02:22:40;13.07;80.39
68943;DHT22;60852;52.190;4.422;2022-10-31T02:28:10;12.86;80.77
68943;DHT22;60852;52.190;4.422;2022-10-31T02:30:41;12.84;81.31
68943;DHT22;60852;52.190;4.422;2022-10-31T02:33:23;12.86;81.61
68943;DHT22;60852;52.190;4.422;2022-10-31T02:39:02;12.87;81.86
68943;DHT22;60852;52.190;4.422;2022-10-31T02:41:46;12.90;82.06
68943;DHT22;60852;52.190;4.422;2022-10-31T02:46:52;12.97;81.61
68943;DHT22;60852;52.190;4.422;2022-10-31T02:49:29;12.94;81.44
68943;DHT22;60852;52.190;4.422;2022-10-31T02:51:57;12.90;81.52
68943;DHT22;60852;52.190;4.422;2022-10-31T02:54:25;12.88;81.66
68943;DHT22;60852;52.190;4.422;2022-10-31T02:57:04;12.90;81.80
68943;DHT22;60852;52.190;4.422;2022-10-31T02:59:35;12.87;81.88
68943;DHT22;60852;52.190;4.422;2022-10-31T03:02:19;12.90;81.83
68943;DHT22;60852;52.190;4.422;2022-10-31T03:15:37;12.72;82.13
68943;DHT22;60852;52.190;4.422;2022-10-31T03:18:09;12.73;82.31
68943;DHT22;60852;52.190;4.422;2022-10-31T03:20:42;12.77;82.37
68943;DHT22;60852;52.190;4.422;2022-10-31T03:23:14;12.83;82.46
68943;DHT22;60852;52.190;4.422;2022-10-31T03:25:42;12.84;82.49
68943;DHT22;60852;52.190;4.422;2022-10-31T03:28:11;12.86;82.61
68943;DHT22;60852;52.190;4.422;2022-10-31T03:30:40;12.84;82.64
68943;DHT22;60852;52.190;4.422;2022-10-31T03:33:12;12.86;82.38
68943;DHT22;60852;52.190;4.422;2022-10-31T03:35:44;12.87;82.28
68943;DHT22;60852;52.190;4.422;2022-10-31T03:38:13;12.86;82.26
68943;DHT22;60852;52.190;4.422;2022-10-31T03:40:43;12.81;82.44
68943;DHT22;60852;52.190;4.422;2022-10-31T03:43:16;12.79;82.57
68943;DHT22;60852;52.190;4.422;2022-10-31T03:45:46;12.84;82.68
68943;DHT22;60852;52.190;4.422;2022-10-31T03:48:14;12.84;82.41
68943;DHT22;60852;52.190;4.422;2022-10-31T03:51:01;12.86;82.22
68943;DHT22;60852;52.190;4.422;2022-10-31T03:53:39;12.81;82.00
68943;DHT22;60852;52.190;4.422;2022-10-31T03:56:09;12.79;81.42
68943;DHT22;60852;52.190;4.422;2022-10-31T03:58:54;12.70;81.70
68943;DHT22;60852;52.190;4.422;2022-10-31T04:01:24;12.67;81.97
68943;DHT22;60852;52.190;4.422;2022-10-31T04:03:52;12.63;81.96
68943;DHT22;60852;52.190;4.422;2022-10-31T04:06:21;12.61;82.19
68943;DHT22;60852;52.190;4.422;2022-10-31T04:09:02;12.61;82.55
68943;DHT22;60852;52.190;4.422;2022-10-31T04:11:33;12.59;82.74
68943;DHT22;60852;52.190;4.422;2022-10-31T04:14:02;12.60;83.01
68943;DHT22;60852;52.190;4.422;2022-10-31T04:16:29;12.66;83.12
68943;DHT22;60852;52.190;4.422;2022-10-31T04:18:55;12.69;83.33
68943;DHT22;60852;52.190;4.422;2022-10-31T04:21:27;12.70;83.31
68943;DHT22;60852;52.190;4.422;2022-10-31T04:23:54;12.69;82.76
68943;DHT22;60852;52.190;4.422;2022-10-31T04:26:19;12.67;82.67
68943;DHT22;60852;52.190;4.422;2022-10-31T04:28:45;12.64;82.78
68943;DHT22;60852;52.190;4.422;2022-10-31T04:31:11;12.61;83.06
68943;DHT22;60852;52.190;4.422;2022-10-31T04:33:37;12.64;82.90
68943;DHT22;60852;52.190;4.422;2022-10-31T04:36:03;12.64;83.04
68943;DHT22;60852;52.190;4.422;2022-10-31T04:38:30;12.61;83.18
68943;DHT22;60852;52.190;4.422;2022-10-31T04:40:55;12.63;83.16
68943;DHT22;60852;52.190;4.422;2022-10-31T04:43:21;12.64;83.24
68943;DHT22;60852;52.190;4.422;2022-10-31T04:45:46;12.64;83.28
68943;DHT22;60852;52.190;4.422;2022-10-31T04:48:12;12.67;83.37
68943;DHT22;60852;52.190;4.422;2022-10-31T04:50:37;12.75;83.29
68943;DHT22;60852;52.190;4.422;2022-10-31T04:53:03;12.72;83.19
68943;DHT22;60852;52.190;4.422;2022-10-31T04:55:28;12.76;83.23
68943;DHT22;60852;52.190;4.422;2022-10-31T04:57:54;12.76;83.28
68943;DHT22;60852;52.190;4.422;2022-10-31T05:00:21;12.76;83.17
68943;DHT22;60852;52.190;4.422;2022-10-31T05:02:52;12.77;83.19
68943;DHT22;60852;52.190;4.422;2022-10-31T05:05:21;12.76;83.11
68943;DHT22;60852;52.190;4.422;2022-10-31T05:07:48;12.75;83.08
68943;DHT22;60852;52.190;4.422;2022-10-31T05:10:18;12.75;83.05
68943;DHT22;60852;52.190;4.422;2022-10-31T05:12:54;12.75;82.98
68943;DHT22;60852;52.190;4.422;2022-10-31T05:15:22;12.73;83.05
68943;DHT22;60852;52.190;4.422;2022-10-31T05:17:48;12.75;83.04
68943;DHT22;60852;52.190;4.422;2022-10-31T05:20:16;12.69;83.11
68943;DHT22;60852;52.190;4.422;2022-10-31T05:22:43;12.69;83.13
68943;DHT22;60852;52.190;4.422;2022-10-31T05:25:08;12.66;83.19
68943;DHT22;60852;52.190;4.422;2022-10-31T05:27:34;12.64;83.23
68943;DHT22;60852;52.190;4.422;2022-10-31T05:29:59;12.66;83.27
68943;DHT22;60852;52.190;4.422;2022-10-31T05:32:25;12.67;83.48
68943;DHT22;60852;52.190;4.422;2022-10-31T05:34:50;12.70;83.45
68943;DHT22;60852;52.190;4.422;2022-10-31T05:37:16;12.72;83.46
68943;DHT22;60852;52.190;4.422;2022-10-31T05:39:41;12.73;83.46
68943;DHT22;60852;52.190;4.422;2022-10-31T05:42:06;12.72;83.34
68943;DHT22;60852;52.190;4.422;2022-10-31T05:44:32;12.73;83.36
68943;DHT22;60852;52.190;4.422;2022-10-31T05:46:57;12.70;83.44
68943;DHT22;60852;52.190;4.422;2022-10-31T05:49:23;12.67;83.31
68943;DHT22;60852;52.190;4.422;2022-10-31T05:51:48;12.66;83.51
68943;DHT22;60852;52.190;4.422;2022-10-31T05:54:14;12.67;83.38
68943;DHT22;60852;52.190;4.422;2022-10-31T05:56:39;12.67;83.44
68943;DHT22;60852;52.190;4.422;2022-10-31T05:59:04;12.72;83.36
68943;DHT22;60852;52.190;4.422;2022-10-31T06:01:30;12.70;83.30
68943;DHT22;60852;52.190;4.422;2022-10-31T06:03:55;12.66;83.29
68943;DHT22;60852;52.190;4.422;2022-10-31T06:06:21;12.64;83.25
68943;DHT22;60852;52.190;4.422;2022-10-31T06:08:46;12.59;83.41
68943;DHT22;60852;52.190;4.422;2022-10-31T06:11:11;12.57;83.44
68943;DHT22;60852;52.190;4.422;2022-10-31T06:13:37;12.55;83.51
68943;DHT22;60852;52.190;4.422;2022-10-31T06:16:02;12.56;83.49
68943;DHT22;60852;52.190;4.422;2022-10-31T06:18:28;12.53;83.39
68943;DHT22;60852;52.190;4.422;2022-10-31T06:20:53;12.55;83.25
68943;DHT22;60852;52.190;4.422;2022-10-31T06:23:19;12.49;83.36
68943;DHT22;60852;52.190;4.422;2022-10-31T06:25:49;12.50;83.51
68943;DHT22;60852;52.190;4.422;2022-10-31T06:28:14;12.46;83.59
68943;DHT22;60852;52.190;4.422;2022-10-31T06:30:39;12.48;83.56
68943;DHT22;60852;52.190;4.422;2022-10-31T06:33:05;12.43;83.52
68943;DHT22;60852;52.190;4.422;2022-10-31T06:35:31;12.46;83.61
68943;DHT22;60852;52.190;4.422;2022-10-31T06:37:57;12.45;83.57
68943;DHT22;60852;52.190;4.422;2022-10-31T06:40:23;12.45;83.62
68943;DHT22;60852;52.190;4.422;2022-10-31T06:42:59;12.43;83.68
68943;DHT22;60852;52.190;4.422;2022-10-31T06:45:26;12.45;83.71
68943;DHT22;60852;52.190;4.422;2022-10-31T06:47:53;12.46;83.75
68943;DHT22;60852;52.190;4.422;2022-10-31T06:50:20;12.48;83.84
68943;DHT22;60852;52.190;4.422;2022-10-31T06:52:57;12.50;83.64
68943;DHT22;60852;52.190;4.422;2022-10-31T06:55:24;12.48;83.72
68943;DHT22;60852;52.190;4.422;2022-10-31T06:57:55;12.45;83.80
68943;DHT22;60852;52.190;4.422;2022-10-31T07:00:23;12.52;83.80
68943;DHT22;60852;52.190;4.422;2022-10-31T07:02:59;12.52;83.76
68943;DHT22;60852;52.190;4.422;2022-10-31T07:05:26;12.52;83.77
68943;DHT22;60852;52.190;4.422;2022-10-31T07:07:56;12.52;83.82
68943;DHT22;60852;52.190;4.422;2022-10-31T07:10:24;12.56;83.83
68943;DHT22;60852;52.190;4.422;2022-10-31T07:12:54;12.61;83.91
68943;DHT22;60852;52.190;4.422;2022-10-31T07:15:20;12.64;83.97
68943;DHT22;60852;52.190;4.422;2022-10-31T07:17:45;12.67;83.92
68943;DHT22;60852;52.190;4.422;2022-10-31T07:20:10;12.72;83.99
68943;DHT22;60852;52.190;4.422;2022-10-31T07:22:37;12.70;84.08
68943;DHT22;60852;52.190;4.422;2022-10-31T07:25:03;12.76;84.11
68943;DHT22;60852;52.190;4.422;2022-10-31T07:27:28;12.83;84.12
68943;DHT22;60852;52.190;4.422;2022-10-31T07:29:54;12.88;84.14
68943;DHT22;60852;52.190;4.422;2022-10-31T07:32:19;12.96;84.06
68943;DHT22;60852;52.190;4.422;2022-10-31T07:34:45;12.97;83.95
68943;DHT22;60852;52.190;4.422;2022-10-31T07:37:10;13.00;84.11
68943;DHT22;60852;52.190;4.422;2022-10-31T07:39:35;13.10;84.14
68943;DHT22;60852;52.190;4.422;2022-10-31T07:42:01;13.15;84.00
68943;DHT22;60852;52.190;4.422;2022-10-31T07:44:26;13.22;84.02
68943;DHT22;60852;52.190;4.422;2022-10-31T07:46:52;13.28;84.00
68943;DHT22;60852;52.190;4.422;2022-10-31T07:49:17;13.38;83.96
68943;DHT22;60852;52.190;4.422;2022-10-31T07:51:43;13.39;83.94
68943;DHT22;60852;52.190;4.422;2022-10-31T07:54:08;13.42;83.86
68943;DHT22;60852;52.190;4.422;2022-10-31T07:56:34;13.45;84.00
68943;DHT22;60852;52.190;4.422;2022-10-31T07:58:59;13.51;84.03
68943;DHT22;60852;52.190;4.422;2022-10-31T08:01:25;13.52;84.12
68943;DHT22;60852;52.190;4.422;2022-10-31T08:03:50;13.59;84.19
68943;DHT22;60852;52.190;4.422;2022-10-31T08:06:16;13.66;84.11
68943;DHT22;60852;52.190;4.422;2022-10-31T08:08:41;13.75;84.17
68943;DHT22;60852;52.190;4.422;2022-10-31T08:11:07;13.82;84.00
68943;DHT22;60852;52.190;4.422;2022-10-31T08:13:32;13.90;83.98
68943;DHT22;60852;52.190;4.422;2022-10-31T08:15:58;13.97;83.82
68943;DHT22;60852;52.190;4.422;2022-10-31T08:18:29;14.03;83.84
68943;DHT22;60852;52.190;4.422;2022-10-31T08:20:55;14.17;83.84
68943;DHT22;60852;52.190;4.422;2022-10-31T08:23:21;14.23;83.67
68943;DHT22;60852;52.190;4.422;2022-10-31T08:25:46;14.30;83.50
68943;DHT22;60852;52.190;4.422;2022-10-31T08:28:13;14.33;83.33
68943;DHT22;60852;52.190;4.422;2022-10-31T08:30:41;14.37;83.35
68943;DHT22;60852;52.190;4.422;2022-10-31T08:33:12;14.44;83.24
68943;DHT22;60852;52.190;4.422;2022-10-31T08:35:39;14.48;83.16
68943;DHT22;60852;52.190;4.422;2022-10-31T08:38:05;14.51;83.08
68943;DHT22;60852;52.190;4.422;2022-10-31T08:40:33;14.57;82.72
68943;DHT22;60852;52.190;4.422;2022-10-31T08:43:04;14.58;82.47
68943;DHT22;60852;52.190;4.422;2022-10-31T08:45:31;14.58;82.38
68943;DHT22;60852;52.190;4.422;2022-10-31T08:47:59;14.57;82.26
68943;DHT22;60852;52.190;4.422;2022-10-31T08:50:26;14.61;82.17
68943;DHT22;60852;52.190;4.422;2022-10-31T08:52:52;14.57;82.08
68943;DHT22;60852;52.190;4.422;2022-10-31T08:55:18;14.57;82.04
68943;DHT22;60852;52.190;4.422;2022-10-31T08:57:43;14.51;81.72
68943;DHT22;60852;52.190;4.422;2022-10-31T09:00:09;14.45;81.86
68943;DHT22;60852;52.190;4.422;2022-10-31T09:02:35;14.44;81.90
68943;DHT22;60852;52.190;4.422;2022-10-31T09:05:00;14.42;81.83
68943;DHT22;60852;52.190;4.422;2022-10-31T09:07:26;14.37;81.92
68943;DHT22;60852;52.190;4.422;2022-10-31T09:09:51;14.37;81.94
68943;DHT22;60852;52.190;4.422;2022-10-31T09:12:16;14.36;81.99
68943;DHT22;60852;52.190;4.422;2022-10-31T09:14:42;14.40;82.14
68943;DHT22;60852;52.190;4.422;2022-10-31T09:17:07;14.44;82.16
68943;DHT22;60852;52.190;4.422;2022-10-31T09:19:33;14.45;81.95
68943;DHT22;60852;52.190;4.422;2022-10-31T09:21:58;14.47;82.09
68943;DHT22;60852;52.190;4.422;2022-10-31T09:24:23;14.49;81.91
68943;DHT22;60852;52.190;4.422;2022-10-31T09:26:49;14.51;82.08
68943;DHT22;60852;52.190;4.422;2022-10-31T09:29:14;14.58;82.02
68943;DHT22;60852;52.190;4.422;2022-10-31T09:31:40;14.65;81.84
68943;DHT22;60852;52.190;4.422;2022-10-31T09:34:05;14.74;81.95
68943;DHT22;60852;52.190;4.422;2022-10-31T09:36:31;14.79;81.99
68943;DHT22;60852;52.190;4.422;2022-10-31T09:38:56;14.86;81.89
68943;DHT22;60852;52.190;4.422;2022-10-31T09:47:58;14.96;81.18
68943;DHT22;60852;52.190;4.422;2022-10-31T09:50:22;15.02;81.25
68943;DHT22;60852;52.190;4.422;2022-10-31T09:53:17;15.15;81.05
68943;DHT22;60852;52.190;4.422;2022-10-31T09:55:47;15.22;80.90
68943;DHT22;60852;52.190;4.422;2022-10-31T09:58:24;15.27;80.62
68943;DHT22;60852;52.190;4.422;2022-10-31T10:00:52;15.33;80.60
68943;DHT22;60852;52.190;4.422;2022-10-31T10:03:34;15.44;80.47
68943;DHT22;60852;52.190;4.422;2022-10-31T10:06:18;15.54;80.15
68943;DHT22;60852;52.190;4.422;2022-10-31T10:08:45;15.74;80.23
68943;DHT22;60852;52.190;4.422;2022-10-31T10:22:15;16.35;78.40
68943;DHT22;60852;52.190;4.422;2022-10-31T10:32:48;16.59;76.31
68943;DHT22;60852;52.190;4.422;2022-10-31T10:37:58;16.41;76.70
68943;DHT22;60852;52.190;4.422;2022-10-31T10:40:27;16.41;76.82
68943;DHT22;60852;52.190;4.422;2022-10-31T10:48:47;17.35;75.74
68943;DHT22;60852;52.190;4.422;2022-10-31T10:51:21;17.87;74.50
68943;DHT22;60852;52.190;4.422;2022-10-31T10:56:52;18.69;70.72
68943;DHT22;60852;52.190;4.422;2022-10-31T10:59:21;18.57;69.79
68943;DHT22;60852;52.190;4.422;2022-10-31T11:01:50;18.36;69.79
68943;DHT22;60852;52.190;4.422;2022-10-31T11:04:23;18.14;70.54
68943;DHT22;60852;52.190;4.422;2022-10-31T11:09:26;17.66;72.14
68943;DHT22;60852;52.190;4.422;2022-10-31T11:11:52;17.45;72.97
68943;DHT22;60852;52.190;4.422;2022-10-31T11:14:19;17.22;73.98
68943;DHT22;60852;52.190;4.422;2022-10-31T11:16:49;17.11;74.50
68943;DHT22;60852;52.190;4.422;2022-10-31T11:19:21;16.97;75.07
68943;DHT22;60852;52.190;4.422;2022-10-31T11:21:48;16.84;75.72
68943;DHT22;60852;52.190;4.422;2022-10-31T11:24:18;16.81;76.36
68943;DHT22;60852;52.190;4.422;2022-10-31T11:26:46;16.81;76.66
68943;DHT22;60852;52.190;4.422;2022-10-31T11:29:25;17.11;76.49
68943;DHT22;60852;52.190;4.422;2022-10-31T11:32:00;17.45;76.15
68943;DHT22;60852;52.190;4.422;2022-10-31T11:34:41;17.59;75.45
68943;DHT22;60852;52.190;4.422;2022-10-31T11:37:15;17.61;75.31
68943;DHT22;60852;52.190;4.422;2022-10-31T11:39:45;17.55;75.19
68943;DHT22;60852;52.190;4.422;2022-10-31T11:42:21;17.36;75.38
68943;DHT22;60852;52.190;4.422;2022-10-31T11:44:48;17.32;75.93
68943;DHT22;60852;52.190;4.422;2022-10-31T11:47:17;17.35;76.33
68943;DHT22;60852;52.190;4.422;2022-10-31T11:49:48;17.45;76.28
68943;DHT22;60852;52.190;4.422;2022-10-31T11:54:54;17.62;75.79
68943;DHT22;60852;52.190;4.422;2022-10-31T11:57:43;17.61;75.59
68943;DHT22;60852;52.190;4.422;2022-10-31T12:00:22;17.65;75.99
68943;DHT22;60852;52.190;4.422;2022-10-31T12:02:48;17.66;75.91
68943;DHT22;60852;52.190;4.422;2022-10-31T12:05:24;17.62;75.50
68943;DHT22;60852;52.190;4.422;2022-10-31T12:07:50;17.55;75.86
68943;DHT22;60852;52.190;4.422;2022-10-31T12:10:21;17.62;76.16
68943;DHT22;60852;52.190;4.422;2022-10-31T12:15:55;17.73;75.28
68943;DHT22;60852;52.190;4.422;2022-10-31T12:21:34;17.63;74.95
68943;DHT22;60852;52.190;4.422;2022-10-31T12:24:34;17.52;75.39
68943;DHT22;60852;52.190;4.422;2022-10-31T12:27:12;17.43;75.86
68943;DHT22;60852;52.190;4.422;2022-10-31T12:35:32;17.27;76.53
68943;DHT22;60852;52.190;4.422;2022-10-31T12:46:02;17.31;77.17
68943;DHT22;60852;52.190;4.422;2022-10-31T13:05:56;18.03;75.23
68943;DHT22;60852;52.190;4.422;2022-10-31T13:08:30;18.13;75.02
68943;DHT22;60852;52.190;4.422;2022-10-31T13:11:02;18.16;74.87
68943;DHT22;60852;52.190;4.422;2022-10-31T13:16:21;18.27;74.87
68943;DHT22;60852;52.190;4.422;2022-10-31T13:18:54;18.21;74.79
68943;DHT22;60852;52.190;4.422;2022-10-31T13:21:49;18.16;74.75
68943;DHT22;60852;52.190;4.422;2022-10-31T13:24:23;18.06;75.18
68943;DHT22;60852;52.190;4.422;2022-10-31T13:26:54;17.99;75.27
68943;DHT22;60852;52.190;4.422;2022-10-31T13:29:32;17.96;75.38
68943;DHT22;60852;52.190;4.422;2022-10-31T13:32:03;17.90;75.70
68943;DHT22;60852;52.190;4.422;2022-10-31T13:34:40;17.90;75.86
68943;DHT22;60852;52.190;4.422;2022-10-31T13:45:27;18.01;76.00
68943;DHT22;60852;52.190;4.422;2022-10-31T13:48:01;18.00;76.13
68943;DHT22;60852;52.190;4.422;2022-10-31T13:51:01;17.97;76.11
68943;DHT22;60852;52.190;4.422;2022-10-31T13:56:15;17.96;76.51
68943;DHT22;60852;52.190;4.422;2022-10-31T13:59:03;17.94;76.58
68943;DHT22;60852;52.190;4.422;2022-10-31T14:01:32;17.99;76.50
68943;DHT22;60852;52.190;4.422;2022-10-31T14:04:03;17.96;76.44
68943;DHT22;60852;52.190;4.422;2022-10-31T14:07:04;17.93;76.53
68943;DHT22;60852;52.190;4.422;2022-10-31T14:09:40;17.85;76.87
68943;DHT22;60852;52.190;4.422;2022-10-31T14:12:40;17.83;76.91
68943;DHT22;60852;52.190;4.422;2022-10-31T14:15:23;17.86;77.10
68943;DHT22;60852;52.190;4.422;2022-10-31T14:17:59;17.82;77.30
68943;DHT22;60852;52.190;4.422;2022-10-31T14:20:31;17.79;77.38
68943;DHT22;60852;52.190;4.422;2022-10-31T14:22:57;17.75;77.71
68943;DHT22;60852;52.190;4.422;2022-10-31T14:25:34;17.72;77.90
68943;DHT22;60852;52.190;4.422;2022-10-31T14:28:06;17.71;77.99
68943;DHT22;60852;52.190;4.422;2022-10-31T14:30:52;17.65;78.21
68943;DHT22;60852;52.190;4.422;2022-10-31T14:33:19;17.61;78.41
68943;DHT22;60852;52.190;4.422;2022-10-31T14:36:03;17.58;78.46
68943;DHT22;60852;52.190;4.422;2022-10-31T14:38:46;17.56;78.57
68943;DHT22;60852;52.190;4.422;2022-10-31T14:46:34;17.46;79.23
68943;DHT22;60852;52.190;4.422;2022-10-31T14:49:31;17.38;79.53
68943;DHT22;60852;52.190;4.422;2022-10-31T14:52:01;17.32;79.88
68943;DHT22;60852;52.190;4.422;2022-10-31T14:54:38;17.32;79.98
68943;DHT22;60852;52.190;4.422;2022-10-31T14:57:34;17.34;79.79
68943;DHT22;60852;52.190;4.422;2022-10-31T15:00:06;17.34;79.84
68943;DHT22;60852;52.190;4.422;2022-10-31T15:05:15;17.39;79.73
68943;DHT22;60852;52.190;4.422;2022-10-31T15:07:52;17.35;79.76
68943;DHT22;60852;52.190;4.422;2022-10-31T15:12:52;17.32;79.98
68943;DHT22;60852;52.190;4.422;2022-10-31T15:15:25;17.27;80.08
68943;DHT22;60852;52.190;4.422;2022-10-31T15:17:55;17.25;80.23
68943;DHT22;60852;52.190;4.422;2022-10-31T15:20:25;17.21;80.39
68943;DHT22;60852;52.190;4.422;2022-10-31T15:22:54;17.21;80.48
68943;DHT22;60852;52.190;4.422;2022-10-31T15:25:23;17.17;80.34
68943;DHT22;60852;52.190;4.422;2022-10-31T15:27:50;17.18;80.41
68943;DHT22;60852;52.190;4.422;2022-10-31T15:30:22;17.14;80.41
68943;DHT22;60852;52.190;4.422;2022-10-31T15:32:48;17.14;80.54
68943;DHT22;60852;52.190;4.422;2022-10-31T15:35:26;17.15;80.37
68943;DHT22;60852;52.190;4.422;2022-10-31T15:37:53;17.10;80.52
68943;DHT22;60852;52.190;4.422;2022-10-31T15:40:21;17.12;80.38
68943;DHT22;60852;52.190;4.422;2022-10-31T15:42:51;17.11;80.51
68943;DHT22;60852;52.190;4.422;2022-10-31T15:45:22;17.10;80.48
68943;DHT22;60852;52.190;4.422;2022-10-31T15:48:02;17.11;80.30
68943;DHT22;60852;52.190;4.422;2022-10-31T15:50:44;17.10;80.20
68943;DHT22;60852;52.190;4.422;2022-10-31T15:56:05;17.08;80.32
68943;DHT22;60852;52.190;4.422;2022-10-31T15:58:33;17.08;80.17
68943;DHT22;60852;52.190;4.422;2022-10-31T16:01:05;17.07;80.20
68943;DHT22;60852;52.190;4.422;2022-10-31T16:03:33;17.07;80.14
68943;DHT22;60852;52.190;4.422;2022-10-31T16:06:01;17.06;80.08
68943;DHT22;60852;52.190;4.422;2022-10-31T16:10:58;17.03;79.89
68943;DHT22;60852;52.190;4.422;2022-10-31T16:13:31;17.03;79.96
68943;DHT22;60852;52.190;4.422;2022-10-31T16:16:01;17.01;80.06
68943;DHT22;60852;52.190;4.422;2022-10-31T16:18:34;17.00;80.08
68943;DHT22;60852;52.190;4.422;2022-10-31T16:21:00;16.97;80.17
68943;DHT22;60852;52.190;4.422;2022-10-31T16:23:27;16.87;80.38
68943;DHT22;60852;52.190;4.422;2022-10-31T16:25:54;16.81;80.66
68943;DHT22;60852;52.190;4.422;2022-10-31T16:28:25;16.77;80.88
68943;DHT22;60852;52.190;4.422;2022-10-31T16:30:53;16.74;80.96
68943;DHT22;60852;52.190;4.422;2022-10-31T16:33:32;16.76;81.00
68943;DHT22;60852;52.190;4.422;2022-10-31T16:36:44;16.72;81.05
68943;DHT22;60852;52.190;4.422;2022-10-31T16:39:09;16.72;81.09
68943;DHT22;60852;52.190;4.422;2022-10-31T16:41:41;16.72;81.11
68943;DHT22;60852;52.190;4.422;2022-10-31T16:44:23;16.72;80.99
68943;DHT22;60852;52.190;4.422;2022-10-31T16:47:12;16.70;80.96
68943;DHT22;60852;52.190;4.422;2022-10-31T16:49:38;16.72;81.05
68943;DHT22;60852;52.190;4.422;2022-10-31T16:52:04;16.72;80.90
68943;DHT22;60852;52.190;4.422;2022-10-31T16:54:30;16.76;80.94
68943;DHT22;60852;52.190;4.422;2022-10-31T16:56:58;16.81;80.60
68943;DHT22;60852;52.190;4.422;2022-10-31T16:59:24;16.84;80.61
68943;DHT22;60852;52.190;4.422;2022-10-31T17:01:50;16.80;80.53
68943;DHT22;60852;52.190;4.422;2022-10-31T17:04:15;16.83;80.30
68943;DHT22;60852;52.190;4.422;2022-10-31T17:06:41;16.80;80.49
68943;DHT22;60852;52.190;4.422;2022-10-31T17:09:07;16.79;80.57
68943;DHT22;60852;52.190;4.422;2022-10-31T17:11:34;16.80;80.52
68943;DHT22;60852;52.190;4.422;2022-10-31T17:14:00;16.85;80.34
68943;DHT22;60852;52.190;4.422;2022-10-31T17:16:26;16.90;80.21
68943;DHT22;60852;52.190;4.422;2022-10-31T17:18:52;16.87;80.21
68943;DHT22;60852;52.190;4.422;2022-10-31T17:21:21;16.84;80.22
68943;DHT22;60852;52.190;4.422;2022-10-31T17:23:50;16.84;80.25
68943;DHT22;60852;52.190;4.422;2022-10-31T17:26:17;16.80;80.48
68943;DHT22;60852;52.190;4.422;2022-10-31T17:28:42;16.77;80.51
68943;DHT22;60852;52.190;4.422;2022-10-31T17:33:46;16.69;80.69
68943;DHT22;60852;52.190;4.422;2022-10-31T17:36:12;16.62;80.63
68943;DHT22;60852;52.190;4.422;2022-10-31T17:38:38;16.57;80.99
68943;DHT22;60852;52.190;4.422;2022-10-31T17:41:05;16.55;81.03
68943;DHT22;60852;52.190;4.422;2022-10-31T17:43:30;16.51;81.10
68943;DHT22;60852;52.190;4.422;2022-10-31T17:46:01;16.51;81.42
68943;DHT22;60852;52.190;4.422;2022-10-31T17:48:27;16.51;81.30
68943;DHT22;60852;52.190;4.422;2022-10-31T17:50:53;16.46;81.22
68943;DHT22;60852;52.190;4.422;2022-10-31T17:53:18;16.38;81.19
68943;DHT22;60852;52.190;4.422;2022-10-31T17:55:44;16.32;81.70
68943;DHT22;60852;52.190;4.422;2022-10-31T17:58:10;16.33;81.69
68943;DHT22;60852;52.190;4.422;2022-10-31T18:00:38;16.36;81.71
68943;DHT22;60852;52.190;4.422;2022-10-31T18:03:06;16.35;81.71